Elkhart Lake, Wisconsin
Current Conditions -  °F | °C
As of 10:37 AM on Sunday 21 Dec 2014 (Local Time) from KSBM Reporting Station
Haze Haze  
Wind Chill: 25°   Ceiling: 2900
Heat Index: 34°   Visibility: 6mi
Dew Point: 30°   Wind: 12mph
Humidity: 85%   Direction: 190°S
Pressure: 30.13"   Gusts: NA
Location:  43.83°N, 88.02°W
Report Text: KSBM 211637Z AUTO 19010KT 6SM BR OVC029 01/M01 A3013 RMK AO2 T00111011
Loading
Personal Weather Stations






























Interactive Weather Map New forecast layout! Learn more

10-Day Weather Forecast

Advertisements
Track Severe Weather on mobile